createdAt,value
2023-04-15T18:20:17.240Z,3.70
2023-04-15T18:22:09.334Z,3.90
2023-04-15T18:24:01.071Z,3.50
2023-04-15T18:25:53.017Z,3.90
2023-04-15T18:27:44.988Z,5.30
2023-04-15T18:29:36.970Z,4.90
2023-04-15T18:31:28.564Z,5.00
2023-04-15T18:33:20.982Z,4.80
2023-04-15T18:35:13.948Z,5.50
2023-04-15T18:37:06.537Z,5.10
2023-04-15T18:41:11.815Z,7.50
2023-04-15T18:43:03.931Z,7.80
2023-04-15T18:44:55.969Z,7.10
2023-04-15T18:46:49.748Z,7.80
2023-04-15T18:48:41.637Z,9.40
2023-04-15T18:50:33.035Z,9.90
2023-04-15T18:52:24.501Z,8.30
2023-04-15T18:54:16.598Z,8.20
2023-04-15T18:56:08.155Z,6.90
2023-04-15T18:58:09.037Z,6.50
2023-04-15T19:00:00.851Z,6.80
2023-04-15T19:01:52.662Z,7.00
2023-04-15T19:03:44.333Z,6.90
2023-04-15T19:05:36.770Z,9.60
2023-04-15T19:07:28.114Z,9.30
2023-04-15T19:09:20.553Z,8.30
2023-04-15T19:11:12.336Z,9.40
2023-04-15T19:13:04.528Z,8.70
2023-04-15T19:14:56.384Z,8.40
2023-04-15T19:16:47.958Z,8.40
2023-04-15T19:18:39.804Z,7.90
2023-04-15T19:20:31.591Z,8.20
2023-04-15T19:22:24.632Z,9.00
2023-04-15T19:24:17.952Z,9.10
2023-04-15T19:26:10.349Z,9.60
2023-04-15T19:28:02.725Z,9.00
2023-04-15T19:29:54.714Z,8.90
2023-04-15T19:31:47.019Z,8.90
2023-04-15T19:33:39.044Z,9.00
2023-04-15T19:35:30.563Z,9.00
2023-04-15T19:39:46.224Z,10.00
2023-04-15T19:41:39.326Z,11.20
2023-04-15T19:43:32.666Z,11.50
2023-04-15T19:45:24.267Z,11.70
2023-04-15T19:47:15.970Z,11.50
2023-04-15T19:49:07.730Z,11.40
2023-04-15T19:51:00.989Z,13.40
2023-04-15T19:52:53.208Z,13.20
2023-04-15T19:54:44.441Z,13.40
2023-04-15T19:56:36.247Z,13.90
2023-04-15T19:58:28.150Z,12.80
2023-04-15T20:00:21.507Z,11.70
2023-04-15T20:02:13.573Z,11.30
2023-04-15T20:04:05.594Z,11.80
2023-04-15T20:05:57.492Z,11.40
2023-04-15T20:07:51.938Z,11.00
2023-04-15T20:09:45.460Z,12.30
2023-04-15T20:12:46.818Z,11.80
2023-04-15T20:13:48.941Z,11.70
2023-04-15T20:15:41.296Z,12.10
2023-04-15T20:17:33.761Z,12.00
2023-04-15T20:19:25.196Z,12.00
2023-04-15T20:21:17.291Z,13.00
2023-04-15T20:23:08.958Z,14.40
2023-04-15T20:25:02.020Z,15.10
2023-04-15T20:26:53.861Z,19.10
2023-04-15T20:28:45.548Z,18.90
2023-04-15T20:30:39.554Z,19.60
2023-04-15T20:32:35.616Z,18.10
2023-04-15T20:34:27.536Z,15.50
2023-04-15T20:36:19.278Z,16.00
2023-04-15T20:38:11.333Z,16.10
2023-04-15T20:40:03.515Z,14.70
2023-04-15T20:41:55.075Z,15.20
2023-04-15T20:43:46.788Z,13.90
2023-04-15T20:45:38.987Z,13.20
2023-04-15T20:47:30.620Z,13.60
2023-04-15T20:49:22.179Z,14.80
2023-04-15T20:51:13.789Z,14.60
2023-04-15T20:53:06.246Z,13.90
2023-04-15T20:54:58.190Z,14.80
2023-04-15T20:56:49.644Z,16.10
2023-04-15T20:58:41.325Z,15.80
2023-04-15T21:00:33.451Z,14.10
2023-04-15T21:02:25.640Z,14.50
2023-04-15T21:04:17.616Z,13.30
2023-04-15T21:06:09.215Z,13.20
2023-04-15T21:08:01.036Z,13.30
2023-04-15T21:10:12.482Z,13.90
2023-04-15T21:12:04.534Z,14.00
2023-04-15T21:13:56.176Z,14.10
2023-04-15T21:15:50.349Z,15.00
2023-04-15T21:17:41.926Z,15.00
2023-04-15T21:19:35.016Z,14.80
2023-04-15T21:21:28.183Z,14.60
2023-04-15T21:23:20.458Z,14.10
2023-04-15T21:25:12.482Z,13.60
2023-04-15T21:27:04.237Z,14.30
2023-04-15T21:28:56.447Z,14.60
2023-04-15T21:30:49.632Z,16.40
2023-04-15T21:32:42.407Z,16.70
2023-04-15T21:34:33.897Z,15.80
2023-04-15T21:36:26.903Z,16.10
2023-04-15T21:38:20.323Z,15.90
2023-04-15T21:40:14.754Z,15.70
2023-04-15T21:42:06.384Z,23.80
2023-04-15T21:43:58.384Z,21.00
2023-04-15T21:46:22.952Z,17.90
2023-04-15T21:48:08.048Z,16.70
2023-04-15T21:49:59.848Z,17.50
2023-04-15T21:51:51.463Z,16.50
2023-04-15T21:53:42.998Z,15.10
2023-04-15T21:55:34.874Z,16.70
2023-04-15T21:57:26.306Z,27.60
2023-04-15T21:59:18.904Z,19.90
2023-04-15T22:01:10.554Z,16.80
2023-04-15T22:03:02.185Z,17.00
2023-04-15T22:04:54.054Z,19.00
2023-04-15T22:06:46.597Z,19.20
2023-04-15T22:08:48.219Z,19.90
2023-04-15T22:11:04.530Z,18.30
2023-04-15T22:13:01.488Z,18.00
2023-04-15T22:14:53.195Z,17.90
2023-04-15T22:16:45.926Z,18.10
2023-04-15T22:18:37.739Z,17.80
2023-04-15T22:20:29.659Z,18.90
2023-04-15T22:22:21.203Z,20.20
2023-04-15T22:26:30.775Z,18.00
2023-04-15T22:28:22.870Z,18.60
2023-04-15T22:30:14.642Z,17.00
2023-04-15T22:32:07.650Z,17.20
2023-04-15T22:33:59.661Z,16.20
2023-04-15T22:35:51.723Z,14.90
2023-04-15T22:37:43.344Z,14.60
2023-04-15T22:39:35.423Z,16.70
2023-04-15T22:41:27.566Z,14.60
2023-04-15T22:43:19.390Z,14.60
2023-04-15T22:45:12.645Z,15.40
2023-04-15T22:47:04.381Z,15.60
2023-04-15T22:48:56.158Z,14.10
2023-04-15T22:50:48.489Z,14.60
2023-04-15T22:52:40.376Z,14.90
2023-04-15T22:54:32.472Z,13.30
2023-04-15T22:56:23.970Z,15.00
2023-04-15T22:58:18.542Z,14.30
2023-04-15T23:00:10.337Z,16.10
2023-04-15T23:02:02.068Z,15.80
2023-04-15T23:03:57.376Z,17.90
2023-04-15T23:05:57.862Z,15.80
2023-04-15T23:07:49.754Z,17.00
2023-04-15T23:09:41.992Z,16.90
2023-04-15T23:11:36.500Z,19.40
2023-04-15T23:13:28.445Z,20.60
2023-04-15T23:15:20.239Z,19.40
2023-04-15T23:17:11.957Z,21.50
2023-04-15T23:19:24.393Z,17.00
2023-04-15T23:21:17.142Z,17.90
2023-04-15T23:23:09.297Z,20.30
2023-04-15T23:25:01.390Z,21.80
2023-04-15T23:26:53.326Z,18.10
2023-04-15T23:28:45.070Z,20.10
2023-04-15T23:30:36.868Z,20.20
2023-04-15T23:32:28.863Z,21.00
2023-04-15T23:34:20.689Z,20.00
2023-04-15T23:36:12.515Z,19.30
2023-04-15T23:38:06.723Z,17.80
2023-04-15T23:39:59.380Z,18.70
2023-04-15T23:41:53.681Z,19.60
2023-04-15T23:43:45.795Z,19.00
2023-04-15T23:45:37.716Z,19.70
2023-04-15T23:47:29.800Z,16.80
2023-04-15T23:49:21.456Z,18.80
2023-04-15T23:51:12.908Z,19.10
2023-04-15T23:53:04.594Z,21.00
2023-04-15T23:54:55.994Z,16.90
2023-04-15T23:56:48.323Z,17.90
2023-04-15T23:58:39.825Z,27.90
